createdAt,value
2019-03-21T00:01:07.563Z,96258.67
2019-03-21T00:03:34.206Z,96257.00
2019-03-21T00:06:00.999Z,96257.69
2019-03-21T00:08:27.590Z,96255.59
2019-03-21T00:10:54.235Z,96251.43
2019-03-21T00:13:20.872Z,96246.13
2019-03-21T00:15:47.524Z,96250.06
2019-03-21T00:18:14.181Z,96251.88
2019-03-21T00:20:40.873Z,96252.28
2019-03-21T00:23:07.552Z,96258.81
2019-03-21T00:25:34.196Z,96249.79
2019-03-21T00:28:00.844Z,96249.96
2019-03-21T00:30:27.542Z,96244.32
2019-03-21T00:32:55.982Z,96242.55
2019-03-21T00:35:20.781Z,96236.11
2019-03-21T00:37:47.426Z,96243.77
2019-03-21T00:40:14.064Z,96247.25
2019-03-21T00:42:40.726Z,96245.24
2019-03-21T00:45:07.370Z,96247.47
2019-03-21T00:47:34.029Z,96241.32
2019-03-21T00:50:00.663Z,96243.59
2019-03-21T00:52:27.396Z,96237.83
2019-03-21T00:54:54.048Z,96237.66
2019-03-21T00:57:20.711Z,96238.52
2019-03-21T00:59:47.358Z,96245.98
2019-03-21T01:02:14.006Z,96236.85
2019-03-21T01:04:40.650Z,96243.09
2019-03-21T01:07:07.305Z,96241.20
2019-03-21T01:09:34.059Z,96236.08
2019-03-21T01:12:00.721Z,96236.32
2019-03-21T01:14:29.967Z,96238.06
2019-03-21T01:16:54.024Z,96238.28
2019-03-21T01:19:20.714Z,96239.78
2019-03-21T01:21:47.361Z,96245.91
2019-03-21T01:24:14.076Z,96240.72
2019-03-21T01:26:40.718Z,96245.73
2019-03-21T01:29:07.463Z,96250.05
2019-03-21T01:31:34.202Z,96247.50
2019-03-21T01:34:00.900Z,96248.84
2019-03-21T01:36:27.550Z,96252.23
2019-03-21T01:38:54.247Z,96246.98
2019-03-21T01:41:20.889Z,96244.95
2019-03-21T01:43:47.525Z,96243.50
2019-03-21T01:46:14.178Z,96246.42
2019-03-21T01:48:40.837Z,96247.19
2019-03-21T01:51:08.934Z,96244.86
2019-03-21T01:53:34.144Z,96239.80
2019-03-21T01:56:00.780Z,96248.34
2019-03-21T01:58:27.440Z,96244.89
2019-03-21T02:00:54.076Z,96249.27
2019-03-21T02:03:20.735Z,96248.23
2019-03-21T02:05:47.366Z,96247.30
2019-03-21T02:08:14.013Z,96237.80
2019-03-21T02:10:40.695Z,96243.98
2019-03-21T02:13:07.347Z,96253.66
2019-03-21T02:15:33.994Z,96249.11
2019-03-21T02:18:00.692Z,96248.17
2019-03-21T02:20:27.328Z,96252.04
2019-03-21T02:22:53.972Z,96252.81
2019-03-21T02:25:20.623Z,96250.42
2019-03-21T02:27:47.269Z,96252.30
2019-03-21T02:30:13.945Z,96251.66
2019-03-21T02:32:40.609Z,96250.03
2019-03-21T02:35:07.268Z,96248.98
2019-03-21T02:37:33.904Z,96249.20
2019-03-21T02:40:00.925Z,96247.35
2019-03-21T02:42:27.221Z,96253.45
2019-03-21T02:45:07.628Z,96258.73
2019-03-21T02:47:20.582Z,96252.72
2019-03-21T02:49:47.237Z,96261.72
2019-03-21T02:52:13.885Z,96263.05
2019-03-21T02:54:40.555Z,96259.83
2019-03-21T02:57:08.184Z,96268.38
2019-03-21T02:59:33.824Z,96276.05
2019-03-21T03:02:00.486Z,96277.47
2019-03-21T03:04:27.132Z,96280.83
2019-03-21T03:06:53.778Z,96278.00
2019-03-21T03:09:20.423Z,96284.84
2019-03-21T03:11:47.083Z,96284.76
2019-03-21T03:14:13.732Z,96282.19
2019-03-21T03:16:40.388Z,96279.41
2019-03-21T03:19:07.023Z,96267.41
2019-03-21T03:21:33.674Z,96282.06
2019-03-21T03:24:00.322Z,96283.02
2019-03-21T03:26:26.962Z,96288.67
2019-03-21T03:28:53.603Z,96286.38
2019-03-21T03:31:20.254Z,96291.74
2019-03-21T03:33:46.945Z,96285.55
2019-03-21T03:36:13.548Z,96292.09
2019-03-21T03:38:40.198Z,96292.56
2019-03-21T03:41:06.836Z,96291.06
2019-03-21T03:43:33.490Z,96294.84
2019-03-21T03:46:00.133Z,96300.97
2019-03-21T03:48:26.780Z,96302.86
2019-03-21T03:50:53.415Z,96303.88
2019-03-21T03:53:20.052Z,96307.77
2019-03-21T03:55:46.710Z,96306.60
2019-03-21T03:58:13.351Z,96314.73
2019-03-21T04:00:39.980Z,96309.22
2019-03-21T04:03:06.633Z,96308.16
2019-03-21T04:05:33.313Z,96302.58
2019-03-21T04:07:59.963Z,96303.52
2019-03-21T04:10:26.601Z,96306.69
2019-03-21T04:12:53.243Z,96311.31
2019-03-21T04:15:19.889Z,96313.08
2019-03-21T04:17:46.571Z,96308.68
2019-03-21T04:20:13.226Z,96315.53
2019-03-21T04:22:39.877Z,96320.69
2019-03-21T04:25:06.517Z,96325.16
2019-03-21T04:27:33.164Z,96324.01
2019-03-21T04:29:59.850Z,96321.66
2019-03-21T04:32:26.541Z,96336.47
2019-03-21T04:34:53.225Z,96337.67
2019-03-21T04:37:19.879Z,96338.47
2019-03-21T04:39:46.527Z,96340.20
2019-03-21T04:42:13.208Z,96343.96
2019-03-21T04:44:39.868Z,96345.31
2019-03-21T04:47:06.530Z,96335.27
2019-03-21T04:49:35.748Z,96343.61
2019-03-21T04:52:02.406Z,96346.81
2019-03-21T04:54:29.102Z,96351.23
2019-03-21T04:56:55.752Z,96351.84
2019-03-21T04:59:22.388Z,96359.77
2019-03-21T05:01:49.046Z,96358.00
2019-03-21T05:04:15.862Z,96357.97
2019-03-21T05:06:42.704Z,96358.41
2019-03-21T05:09:09.349Z,96357.04
2019-03-21T05:11:36.034Z,96346.34
2019-03-21T05:14:02.669Z,96357.00
2019-03-21T05:16:29.371Z,96356.88
2019-03-21T05:18:56.009Z,96361.73
2019-03-21T05:21:22.649Z,96363.08
2019-03-21T05:23:49.328Z,96363.96
2019-03-21T05:26:16.112Z,96371.97
2019-03-21T05:28:42.756Z,96370.64
2019-03-21T05:31:09.400Z,96372.72
2019-03-21T05:33:36.097Z,96377.53
2019-03-21T05:36:02.742Z,96387.19
2019-03-21T05:38:29.395Z,96396.30
2019-03-21T05:40:56.041Z,96394.95
2019-03-21T05:43:22.732Z,96390.05
2019-03-21T05:45:49.365Z,96388.20
2019-03-21T05:48:16.025Z,96394.13
2019-03-21T05:50:42.667Z,96394.94
2019-03-21T05:53:09.361Z,96391.95
2019-03-21T05:55:36.004Z,96391.10
2019-03-21T05:58:02.635Z,96399.67
2019-03-21T06:00:30.525Z,96399.20
2019-03-21T06:02:57.182Z,96399.84
2019-03-21T06:05:23.833Z,96399.64
2019-03-21T06:07:50.473Z,96397.28
2019-03-21T06:10:17.120Z,96394.72
2019-03-21T06:12:43.812Z,96401.44
2019-03-21T06:15:10.493Z,96402.33
2019-03-21T06:17:37.154Z,96403.25
2019-03-21T06:20:04.318Z,96414.17
2019-03-21T06:22:30.466Z,96414.79
2019-03-21T06:24:57.121Z,96412.61
2019-03-21T06:27:23.767Z,96417.74
2019-03-21T06:29:50.410Z,96418.63
2019-03-21T06:32:17.178Z,96423.33
2019-03-21T06:34:43.874Z,96424.74
2019-03-21T06:37:10.527Z,96433.36
2019-03-21T06:39:37.241Z,96423.23
2019-03-21T06:42:03.937Z,96431.80
2019-03-21T06:44:30.580Z,96424.03
2019-03-21T06:46:57.234Z,96429.48
2019-03-21T06:49:23.912Z,96429.55
2019-03-21T06:51:50.590Z,96436.52
2019-03-21T06:54:17.237Z,96431.38
2019-03-21T06:56:43.905Z,96440.34
2019-03-21T06:59:10.555Z,96447.05
2019-03-21T07:01:37.268Z,96448.55
2019-03-21T07:04:07.433Z,96450.77
2019-03-21T07:06:30.604Z,96463.00
2019-03-21T07:08:57.299Z,96456.58
2019-03-21T07:11:23.953Z,96457.12
2019-03-21T07:13:50.616Z,96452.07
2019-03-21T07:16:17.256Z,96464.66
2019-03-21T07:18:43.946Z,96469.53
2019-03-21T07:21:10.636Z,96464.53
2019-03-21T07:23:37.321Z,96465.89
2019-03-21T07:26:03.962Z,96467.19
2019-03-21T07:28:30.608Z,96469.03
2019-03-21T07:30:57.361Z,96468.41
2019-03-21T07:33:24.137Z,96469.52
2019-03-21T07:35:50.817Z,96439.01
2019-03-21T07:38:17.468Z,96474.30
2019-03-21T07:40:44.135Z,96476.67
2019-03-21T07:43:10.879Z,96473.56
2019-03-21T07:45:37.521Z,96473.16
2019-03-21T07:48:05.367Z,96474.83
2019-03-21T07:50:30.872Z,96473.11
2019-03-21T07:52:57.587Z,96480.16
2019-03-21T07:55:24.224Z,96484.86
2019-03-21T07:57:51.026Z,96489.21
2019-03-21T08:00:17.691Z,96481.47
2019-03-21T08:02:45.419Z,96479.54
2019-03-21T08:05:12.089Z,96482.66
2019-03-21T08:07:38.755Z,96481.98
2019-03-21T08:10:05.411Z,96483.27
2019-03-21T08:12:32.176Z,96483.41
2019-03-21T08:14:58.831Z,96478.19
2019-03-21T08:17:25.565Z,96481.27
2019-03-21T08:19:52.251Z,96487.95
2019-03-21T08:22:18.901Z,96482.38
2019-03-21T08:24:45.559Z,96481.59
2019-03-21T08:27:12.204Z,96487.87
2019-03-21T08:29:38.907Z,96491.37
2019-03-21T08:32:05.689Z,96490.58
2019-03-21T08:34:32.386Z,96490.33
2019-03-21T08:36:59.050Z,96488.31
2019-03-21T08:39:25.918Z,96479.74
2019-03-21T08:41:52.588Z,96493.05
2019-03-21T08:44:19.297Z,96491.38
2019-03-21T08:46:45.967Z,96484.16
2019-03-21T08:49:12.653Z,96490.95
2019-03-21T08:51:39.293Z,96488.31
2019-03-21T08:54:06.001Z,96491.73
2019-03-21T08:56:32.651Z,96484.99
2019-03-21T08:58:59.315Z,96495.79
2019-03-21T09:01:26.001Z,96499.91
2019-03-21T09:03:52.702Z,96500.63
2019-03-21T09:06:19.387Z,96496.34
2019-03-21T09:08:46.046Z,96464.24
2019-03-21T09:11:12.724Z,96491.82
2019-03-21T09:13:39.539Z,96494.67
2019-03-21T09:16:06.246Z,96492.19
2019-03-21T09:18:32.889Z,96484.14
2019-03-21T09:20:59.902Z,96495.19
2019-03-21T09:23:26.724Z,96492.41
2019-03-21T09:25:53.427Z,96489.38
2019-03-21T09:28:20.289Z,96488.23
2019-03-21T09:30:47.604Z,96491.45
2019-03-21T09:33:14.284Z,96483.23
2019-03-21T09:35:40.927Z,96489.19
2019-03-21T09:38:07.586Z,96485.15
2019-03-21T09:40:34.239Z,96491.55
2019-03-21T09:43:03.041Z,96485.59
2019-03-21T09:45:27.521Z,96478.89
2019-03-21T09:47:54.209Z,96483.34
2019-03-21T09:50:20.888Z,96482.31
2019-03-21T09:52:47.526Z,96480.31
2019-03-21T09:55:14.224Z,96480.80
2019-03-21T09:57:40.901Z,96482.09
2019-03-21T10:00:07.550Z,96481.45
2019-03-21T10:02:34.237Z,96480.84
2019-03-21T10:05:00.884Z,96475.25
2019-03-21T10:07:27.548Z,96468.38
2019-03-21T10:09:54.188Z,96474.34
2019-03-21T10:12:20.940Z,96477.02
2019-03-21T10:14:47.581Z,96481.59
2019-03-21T10:17:14.286Z,96471.44
2019-03-21T10:19:41.026Z,96466.63
2019-03-21T10:22:07.663Z,96462.19
2019-03-21T10:24:34.366Z,96463.59
2019-03-21T10:27:01.051Z,96452.16
2019-03-21T10:29:27.697Z,96451.04
2019-03-21T10:31:54.356Z,96446.33
2019-03-21T10:34:21.444Z,96444.17
2019-03-21T10:36:48.094Z,96437.84
2019-03-21T10:39:14.798Z,96429.58
2019-03-21T10:41:41.426Z,96434.67
2019-03-21T10:44:08.136Z,96427.94
2019-03-21T10:46:34.771Z,96422.62
2019-03-21T10:49:01.466Z,96417.05
2019-03-21T10:51:28.137Z,96412.45
2019-03-21T10:53:54.828Z,96413.10
2019-03-21T10:56:21.504Z,96403.34
2019-03-21T10:58:48.150Z,96399.15
2019-03-21T11:01:14.841Z,96401.20
2019-03-21T11:03:41.489Z,96402.07
2019-03-21T11:06:08.265Z,96395.98
2019-03-21T11:08:34.895Z,96386.59
2019-03-21T11:11:01.628Z,96387.72
2019-03-21T11:13:28.289Z,96376.70
2019-03-21T11:15:55.036Z,96371.88
2019-03-21T11:18:21.692Z,96365.55
2019-03-21T11:20:48.354Z,96363.63
2019-03-21T11:23:15.134Z,96367.69
2019-03-21T11:25:41.874Z,96365.15
2019-03-21T11:28:09.895Z,96368.08
2019-03-21T11:30:35.191Z,96351.42
2019-03-21T11:33:01.895Z,96365.34
2019-03-21T11:35:28.724Z,96355.36
2019-03-21T11:37:55.478Z,96360.14
2019-03-21T11:40:22.209Z,96358.88
2019-03-21T11:42:48.950Z,96347.84
2019-03-21T11:45:15.591Z,96346.82
2019-03-21T11:47:42.426Z,96332.59
2019-03-21T11:50:08.974Z,96335.00
2019-03-21T11:52:35.629Z,96334.59
2019-03-21T11:55:02.310Z,96330.72
2019-03-21T11:57:28.940Z,96329.13
2019-03-21T11:59:55.664Z,96318.63
2019-03-21T12:02:27.220Z,96320.93
2019-03-21T12:04:49.052Z,96324.78
2019-03-21T12:07:15.867Z,96314.78
2019-03-21T12:09:42.577Z,96312.55
2019-03-21T12:12:09.581Z,96308.97
2019-03-21T12:14:36.274Z,96304.37
2019-03-21T12:17:03.004Z,96310.25
2019-03-21T12:19:29.673Z,96311.51
2019-03-21T12:21:58.954Z,96306.05
2019-03-21T12:24:25.660Z,96305.30
2019-03-21T12:26:52.349Z,96300.34
2019-03-21T12:29:18.989Z,96306.94
2019-03-21T12:31:45.663Z,96298.55
2019-03-21T12:34:13.461Z,96300.70
2019-03-21T12:36:40.135Z,96294.75
2019-03-21T12:39:06.775Z,96295.11
2019-03-21T12:41:33.873Z,96299.41
2019-03-21T12:44:00.530Z,96287.01
2019-03-21T12:46:28.155Z,96287.20
2019-03-21T12:48:54.794Z,96287.42
2019-03-21T12:51:21.554Z,96282.75
2019-03-21T12:53:48.227Z,96284.53
2019-03-21T12:56:14.864Z,96281.38
2019-03-21T12:58:41.568Z,96287.06
2019-03-21T13:01:08.227Z,96288.45
2019-03-21T13:03:34.879Z,96289.09
2019-03-21T13:06:01.561Z,96283.70
2019-03-21T13:08:33.828Z,96276.00
2019-03-21T13:10:54.992Z,96283.19
2019-03-21T13:13:21.651Z,96280.53
2019-03-21T13:15:48.310Z,96277.75
2019-03-21T13:18:14.969Z,96282.30
2019-03-21T13:20:41.934Z,96273.30
2019-03-21T13:23:08.653Z,96271.13
2019-03-21T13:25:35.310Z,96273.30
2019-03-21T13:28:01.958Z,96278.77
2019-03-21T13:30:28.671Z,96269.19
2019-03-21T13:32:55.327Z,96266.47
2019-03-21T13:35:32.069Z,96262.67
2019-03-21T13:37:53.819Z,96257.75
2019-03-21T13:40:17.973Z,96264.87
2019-03-21T13:42:44.676Z,96263.44
2019-03-21T13:45:11.331Z,96263.72
2019-03-21T13:47:38.018Z,96255.19
2019-03-21T13:50:04.718Z,96262.67
2019-03-21T13:52:31.356Z,96267.63
2019-03-21T13:54:58.031Z,96267.22
2019-03-21T13:57:24.700Z,96267.88
2019-03-21T13:59:51.501Z,96265.08
2019-03-21T14:02:18.157Z,96263.69
2019-03-21T14:04:44.805Z,96258.73
2019-03-21T14:07:14.510Z,96259.03
2019-03-21T14:09:41.199Z,96250.02
2019-03-21T14:12:07.857Z,96249.63
2019-03-21T14:14:34.553Z,96247.75
2019-03-21T14:17:01.203Z,96247.36
2019-03-21T14:19:27.879Z,96237.94
2019-03-21T14:21:54.536Z,96235.98
2019-03-21T14:24:21.185Z,96236.84
2019-03-21T14:26:47.831Z,96230.98
2019-03-21T14:29:14.791Z,96233.30
2019-03-21T14:31:41.457Z,96214.94
2019-03-21T14:34:08.116Z,96238.41
2019-03-21T14:36:34.755Z,96228.42
2019-03-21T14:39:01.501Z,96227.29
2019-03-21T14:41:28.164Z,96211.04
2019-03-21T14:43:54.801Z,96213.88
2019-03-21T14:46:21.454Z,96216.24
2019-03-21T14:48:48.119Z,96210.44
2019-03-21T14:51:14.778Z,96214.70
2019-03-21T14:53:41.420Z,96216.49
2019-03-21T14:56:08.053Z,96220.20
2019-03-21T14:58:34.713Z,96222.00
2019-03-21T15:01:01.359Z,96222.09
2019-03-21T15:03:27.998Z,96215.66
2019-03-21T15:05:54.655Z,96209.49
2019-03-21T15:08:21.428Z,96213.17
2019-03-21T15:10:48.082Z,96215.31
2019-03-21T15:13:14.738Z,96210.27
2019-03-21T15:15:41.371Z,96215.71
2019-03-21T15:18:08.013Z,96222.58
2019-03-21T15:20:34.674Z,96223.22
2019-03-21T15:23:01.324Z,96222.71
2019-03-21T15:25:27.981Z,96216.70
2019-03-21T15:27:54.625Z,96215.73
2019-03-21T15:30:21.354Z,96213.66
2019-03-21T15:32:47.916Z,96213.22
2019-03-21T15:35:14.572Z,96218.80
2019-03-21T15:37:41.223Z,96218.39
2019-03-21T15:40:07.876Z,96221.97
2019-03-21T15:42:34.530Z,96217.18
2019-03-21T15:45:15.618Z,96220.10
2019-03-21T15:47:27.824Z,96213.94
2019-03-21T15:49:54.479Z,96219.11
2019-03-21T15:52:21.129Z,96214.68
2019-03-21T15:54:47.781Z,96216.20
2019-03-21T15:57:14.437Z,96218.64
2019-03-21T15:59:41.123Z,96229.53
2019-03-21T16:02:07.726Z,96232.08
2019-03-21T16:04:34.386Z,96240.97
2019-03-21T16:07:01.173Z,96251.22
2019-03-21T16:09:27.829Z,96253.61
2019-03-21T16:11:54.462Z,96252.61
2019-03-21T16:14:21.119Z,96259.09
2019-03-21T16:16:47.761Z,96262.49
2019-03-21T16:19:14.413Z,96266.06
2019-03-21T16:21:41.059Z,96261.48
2019-03-21T16:24:07.821Z,96275.20
2019-03-21T16:26:36.609Z,96274.30
2019-03-21T16:29:01.117Z,96279.64
2019-03-21T16:31:27.764Z,96281.13
2019-03-21T16:33:54.408Z,96279.63
2019-03-21T16:36:21.065Z,96278.07
2019-03-21T16:38:47.718Z,96280.38
2019-03-21T16:41:14.506Z,96282.53
2019-03-21T16:43:41.144Z,96289.47
2019-03-21T16:46:07.796Z,96290.12
2019-03-21T16:48:34.432Z,96290.63
2019-03-21T16:51:03.036Z,96293.16
2019-03-21T16:53:27.732Z,96301.41
2019-03-21T16:55:54.400Z,96298.86
2019-03-21T16:58:21.042Z,96305.08
2019-03-21T17:00:47.689Z,96307.86
2019-03-21T17:03:14.332Z,96312.78
2019-03-21T17:05:40.989Z,96307.08
2019-03-21T17:08:11.685Z,96322.54
2019-03-21T17:10:34.322Z,96322.30
2019-03-21T17:13:04.432Z,96324.08
2019-03-21T17:15:27.590Z,96330.27
2019-03-21T17:17:54.278Z,96334.30
2019-03-21T17:20:20.987Z,96329.57
2019-03-21T17:22:47.623Z,96332.98
2019-03-21T17:25:14.281Z,96343.81
2019-03-21T17:27:40.916Z,96339.95
2019-03-21T17:30:07.574Z,96345.14
2019-03-21T17:32:34.209Z,96342.87
2019-03-21T17:35:00.861Z,96346.67
2019-03-21T17:37:27.502Z,96340.99
2019-03-21T17:39:54.182Z,96347.09
2019-03-21T17:42:21.142Z,96327.77
2019-03-21T17:44:47.508Z,96345.14
2019-03-21T17:47:14.154Z,96346.81
2019-03-21T17:49:40.837Z,96347.68
2019-03-21T17:52:07.490Z,96352.10
2019-03-21T17:54:41.428Z,96350.22
2019-03-21T17:57:00.810Z,96353.63
2019-03-21T17:59:27.505Z,96346.66
2019-03-21T18:01:54.153Z,96347.92
2019-03-21T18:04:20.788Z,96339.81
2019-03-21T18:06:47.460Z,96355.52
2019-03-21T18:09:14.097Z,96350.56
2019-03-21T18:11:40.790Z,96344.37
2019-03-21T18:14:07.432Z,96344.23
2019-03-21T18:16:34.072Z,96347.02
2019-03-21T18:19:00.712Z,96344.48
2019-03-21T18:21:27.360Z,96353.73
2019-03-21T18:23:54.014Z,96343.95
2019-03-21T18:26:20.673Z,96345.97
2019-03-21T18:28:47.305Z,96348.52
2019-03-21T18:31:13.962Z,96350.26
2019-03-21T18:33:40.604Z,96349.11
2019-03-21T18:36:07.256Z,96345.97
2019-03-21T18:38:34.011Z,96345.45
2019-03-21T18:41:00.654Z,96347.98
2019-03-21T18:43:27.294Z,96347.22
2019-03-21T18:45:53.936Z,96348.48
2019-03-21T18:48:20.634Z,96345.31
2019-03-21T18:50:47.269Z,96342.66
2019-03-21T18:53:13.914Z,96341.89
2019-03-21T18:55:40.576Z,96338.86
2019-03-21T18:58:07.244Z,96338.73
2019-03-21T19:00:33.881Z,96339.21
2019-03-21T19:03:00.898Z,96335.80
2019-03-21T19:05:27.364Z,96334.93
2019-03-21T19:07:54.008Z,96339.74
2019-03-21T19:10:20.691Z,96342.13
2019-03-21T19:12:47.324Z,96333.40
2019-03-21T19:15:13.965Z,96337.82
2019-03-21T19:17:40.618Z,96337.33
2019-03-21T19:20:07.262Z,96336.28
2019-03-21T19:22:33.900Z,96335.55
2019-03-21T19:25:00.559Z,96331.34
2019-03-21T19:27:27.193Z,96330.71
2019-03-21T19:29:53.887Z,96329.18
2019-03-21T19:32:20.528Z,96329.56
2019-03-21T19:34:47.159Z,96329.70
2019-03-21T19:37:13.814Z,96328.93
2019-03-21T19:39:40.465Z,96327.39
2019-03-21T19:42:07.100Z,96334.12
2019-03-21T19:44:33.746Z,96330.81
2019-03-21T19:47:01.477Z,96322.31
2019-03-21T19:49:27.033Z,96327.26
2019-03-21T19:51:53.667Z,96329.55
2019-03-21T19:54:20.323Z,96330.80
2019-03-21T19:56:46.970Z,96327.88
2019-03-21T19:59:16.396Z,96334.21
2019-03-21T20:01:43.042Z,96324.99
2019-03-21T20:04:09.685Z,96322.83
2019-03-21T20:06:36.380Z,96328.39
2019-03-21T20:09:03.037Z,96332.92
2019-03-21T20:11:29.689Z,96331.28
2019-03-21T20:13:56.373Z,96334.31
2019-03-21T20:16:23.093Z,96345.44
2019-03-21T20:18:49.735Z,96347.35
2019-03-21T20:21:16.373Z,96354.17
2019-03-21T20:23:43.018Z,96350.23
2019-03-21T20:26:09.657Z,96354.03
2019-03-21T20:28:36.306Z,96352.64
2019-03-21T20:31:02.953Z,96357.33
2019-03-21T20:33:29.639Z,96352.77
2019-03-21T20:35:56.282Z,96358.42
2019-03-21T20:38:22.916Z,96356.66
2019-03-21T20:40:49.580Z,96362.61
2019-03-21T20:43:16.215Z,96361.98
2019-03-21T20:45:42.904Z,96365.25
2019-03-21T20:48:09.555Z,96363.61
2019-03-21T20:50:36.198Z,96357.91
2019-03-21T20:53:02.885Z,96357.02
2019-03-21T20:55:29.576Z,96352.95
2019-03-21T20:57:56.260Z,96359.81
2019-03-21T21:00:22.901Z,96361.55
2019-03-21T21:02:49.558Z,96362.82
2019-03-21T21:05:16.191Z,96361.29
2019-03-21T21:07:42.843Z,96362.16
2019-03-21T21:10:09.475Z,96366.58
2019-03-21T21:12:37.381Z,96356.33
2019-03-21T21:15:02.771Z,96353.55
2019-03-21T21:17:29.416Z,96355.58
2019-03-21T21:19:56.105Z,96361.91
2019-03-21T21:22:22.750Z,96357.59
2019-03-21T21:24:49.397Z,96361.01
2019-03-21T21:27:16.043Z,96370.47
2019-03-21T21:29:43.107Z,96368.58
2019-03-21T21:32:09.413Z,96372.88
2019-03-21T21:34:36.010Z,96367.95
2019-03-21T21:37:02.648Z,96366.78
2019-03-21T21:39:29.331Z,96367.27
2019-03-21T21:41:55.978Z,96366.55
2019-03-21T21:44:22.695Z,96364.25
2019-03-21T21:46:49.341Z,96370.72
2019-03-21T21:49:15.984Z,96369.56
2019-03-21T21:51:42.676Z,96374.36
2019-03-21T21:54:09.317Z,96371.20
2019-03-21T21:56:35.964Z,96374.21
2019-03-21T21:59:02.628Z,96370.80
2019-03-21T22:01:29.269Z,96366.15
2019-03-21T22:04:04.554Z,96365.83
2019-03-21T22:06:22.544Z,96359.87
2019-03-21T22:08:49.220Z,96363.91
2019-03-21T22:11:15.899Z,96363.80
2019-03-21T22:13:42.584Z,96358.33
2019-03-21T22:16:10.184Z,96366.05
2019-03-21T22:18:35.966Z,96363.41
2019-03-21T22:21:02.617Z,96366.54
2019-03-21T22:23:29.274Z,96365.03
2019-03-21T22:25:56.023Z,96361.87
2019-03-21T22:28:22.752Z,96366.66
2019-03-21T22:30:49.431Z,96362.58
2019-03-21T22:33:16.069Z,96366.34
2019-03-21T22:35:42.723Z,96357.37
2019-03-21T22:38:09.371Z,96359.70
2019-03-21T22:40:36.063Z,96359.89
2019-03-21T22:43:02.701Z,96356.23
2019-03-21T22:45:29.359Z,96351.34
2019-03-21T22:47:56.033Z,96361.02
2019-03-21T22:50:22.678Z,96352.77
2019-03-21T22:52:49.418Z,96349.88
2019-03-21T22:55:16.072Z,96351.13
2019-03-21T22:57:42.710Z,96348.95
2019-03-21T23:00:09.449Z,96359.83
2019-03-21T23:02:36.086Z,96354.21
2019-03-21T23:05:02.730Z,96355.38
2019-03-21T23:07:29.373Z,96355.36
2019-03-21T23:09:56.019Z,96358.67
2019-03-21T23:12:22.655Z,96358.63
2019-03-21T23:14:49.291Z,96357.90
2019-03-21T23:17:15.943Z,96360.70
2019-03-21T23:19:42.581Z,96358.14
2019-03-21T23:22:09.234Z,96366.41
2019-03-21T23:24:35.918Z,96365.06
2019-03-21T23:27:02.569Z,96370.19
2019-03-21T23:29:29.258Z,96364.52
2019-03-21T23:31:55.909Z,96367.30
2019-03-21T23:34:22.559Z,96363.77
2019-03-21T23:36:49.219Z,96361.21
2019-03-21T23:39:15.863Z,96364.86
2019-03-21T23:41:42.552Z,96361.58
2019-03-21T23:44:09.190Z,96351.24
2019-03-21T23:46:35.874Z,96351.95
2019-03-21T23:49:02.514Z,96358.91
2019-03-21T23:51:29.161Z,96357.89
2019-03-21T23:53:55.887Z,96350.14
2019-03-21T23:56:22.568Z,96353.78
2019-03-21T23:58:49.199Z,96350.98
